sensor_id;sensor_type;location;lat;lon;timestamp;temperature;humidity
37380;DHT22;23252;-33.992;18.480;2023-07-16T00:01:01;14.50;99.90
37380;DHT22;23252;-33.992;18.480;2023-07-16T00:03:28;14.50;99.90
37380;DHT22;23252;-33.992;18.480;2023-07-16T00:05:54;14.50;99.90
37380;DHT22;23252;-33.992;18.480;2023-07-16T00:08:22;14.50;99.90
37380;DHT22;23252;-33.992;18.480;2023-07-16T00:10:48;14.60;99.90
37380;DHT22;23252;-33.992;18.480;2023-07-16T00:13:15;14.60;99.90
37380;DHT22;23252;-33.992;18.480;2023-07-16T00:15:41;14.60;99.90
37380;DHT22;23252;-33.992;18.480;2023-07-16T00:18:08;14.60;99.90
37380;DHT22;23252;-33.992;18.480;2023-07-16T00:20:34;14.60;99.90
37380;DHT22;23252;-33.992;18.480;2023-07-16T00:23:01;14.60;99.90
37380;DHT22;23252;-33.992;18.480;2023-07-16T00:25:27;14.60;99.90
37380;DHT22;23252;-33.992;18.480;2023-07-16T00:27:54;14.60;99.90
37380;DHT22;23252;-33.992;18.480;2023-07-16T00:30:20;14.70;99.90
37380;DHT22;23252;-33.992;18.480;2023-07-16T00:32:47;14.70;99.90
37380;DHT22;23252;-33.992;18.480;2023-07-16T00:35:13;14.70;99.90
37380;DHT22;23252;-33.992;18.480;2023-07-16T00:37:40;14.60;99.90
37380;DHT22;23252;-33.992;18.480;2023-07-16T00:40:07;14.60;99.90
37380;DHT22;23252;-33.992;18.480;2023-07-16T00:42:33;14.60;99.90
37380;DHT22;23252;-33.992;18.480;2023-07-16T00:45:01;14.60;99.90
37380;DHT22;23252;-33.992;18.480;2023-07-16T00:47:27;14.60;99.90
37380;DHT22;23252;-33.992;18.480;2023-07-16T00:49:54;14.60;99.90
37380;DHT22;23252;-33.992;18.480;2023-07-16T00:52:21;14.60;99.90
37380;DHT22;23252;-33.992;18.480;2023-07-16T00:54:49;14.60;99.90
37380;DHT22;23252;-33.992;18.480;2023-07-16T00:57:16;14.60;99.90
37380;DHT22;23252;-33.992;18.480;2023-07-16T00:59:43;14.60;99.90
37380;DHT22;23252;-33.992;18.480;2023-07-16T01:02:09;14.60;99.90
37380;DHT22;23252;-33.992;18.480;2023-07-16T01:04:36;14.60;99.90
37380;DHT22;23252;-33.992;18.480;2023-07-16T01:07:05;14.60;99.90
37380;DHT22;23252;-33.992;18.480;2023-07-16T01:09:34;14.60;99.90
37380;DHT22;23252;-33.992;18.480;2023-07-16T01:12:03;14.60;99.90
37380;DHT22;23252;-33.992;18.480;2023-07-16T01:14:31;14.60;99.90
37380;DHT22;23252;-33.992;18.480;2023-07-16T01:16:58;14.60;99.90
37380;DHT22;23252;-33.992;18.480;2023-07-16T01:19:28;14.60;99.90
37380;DHT22;23252;-33.992;18.480;2023-07-16T01:30:02;14.60;99.90
37380;DHT22;23252;-33.992;18.480;2023-07-16T01:32:31;14.60;99.90
37380;DHT22;23252;-33.992;18.480;2023-07-16T01:34:58;14.50;99.90
37380;DHT22;23252;-33.992;18.480;2023-07-16T01:37:24;14.40;99.90
37380;DHT22;23252;-33.992;18.480;2023-07-16T01:39:51;14.50;99.90
37380;DHT22;23252;-33.992;18.480;2023-07-16T01:42:17;14.50;99.90
37380;DHT22;23252;-33.992;18.480;2023-07-16T01:44:44;14.40;99.90
37380;DHT22;23252;-33.992;18.480;2023-07-16T01:49:39;14.40;99.90
37380;DHT22;23252;-33.992;18.480;2023-07-16T01:52:06;14.40;99.90
37380;DHT22;23252;-33.992;18.480;2023-07-16T01:54:33;14.40;99.90
37380;DHT22;23252;-33.992;18.480;2023-07-16T01:56:59;14.40;99.90
37380;DHT22;23252;-33.992;18.480;2023-07-16T01:59:26;14.40;99.90
37380;DHT22;23252;-33.992;18.480;2023-07-16T02:01:52;14.40;99.90
37380;DHT22;23252;-33.992;18.480;2023-07-16T02:04:19;14.40;99.90
37380;DHT22;23252;-33.992;18.480;2023-07-16T02:06:46;14.40;99.90
37380;DHT22;23252;-33.992;18.480;2023-07-16T02:09:14;14.30;99.90
37380;DHT22;23252;-33.992;18.480;2023-07-16T02:11:40;14.30;99.90
37380;DHT22;23252;-33.992;18.480;2023-07-16T02:14:07;14.40;99.90
37380;DHT22;23252;-33.992;18.480;2023-07-16T02:16:33;14.40;99.90
37380;DHT22;23252;-33.992;18.480;2023-07-16T02:18:59;14.40;99.90
37380;DHT22;23252;-33.992;18.480;2023-07-16T02:21:26;14.30;99.90
37380;DHT22;23252;-33.992;18.480;2023-07-16T02:23:52;14.30;99.90
37380;DHT22;23252;-33.992;18.480;2023-07-16T02:26:19;14.30;99.90
37380;DHT22;23252;-33.992;18.480;2023-07-16T02:28:45;14.30;99.90
37380;DHT22;23252;-33.992;18.480;2023-07-16T02:31:12;14.30;99.90
37380;DHT22;23252;-33.992;18.480;2023-07-16T02:33:38;14.40;99.90
37380;DHT22;23252;-33.992;18.480;2023-07-16T02:36:05;14.30;99.90
37380;DHT22;23252;-33.992;18.480;2023-07-16T02:38:32;14.30;99.90
37380;DHT22;23252;-33.992;18.480;2023-07-16T02:40:58;14.30;99.90
37380;DHT22;23252;-33.992;18.480;2023-07-16T02:43:25;14.30;99.90
37380;DHT22;23252;-33.992;18.480;2023-07-16T02:45:51;14.30;99.90
37380;DHT22;23252;-33.992;18.480;2023-07-16T02:48:18;14.30;99.90
37380;DHT22;23252;-33.992;18.480;2023-07-16T02:50:44;14.30;99.90
37380;DHT22;23252;-33.992;18.480;2023-07-16T02:53:11;14.20;99.90
37380;DHT22;23252;-33.992;18.480;2023-07-16T02:55:37;14.30;99.90
37380;DHT22;23252;-33.992;18.480;2023-07-16T02:58:04;14.30;99.90
37380;DHT22;23252;-33.992;18.480;2023-07-16T03:00:31;14.30;99.90
37380;DHT22;23252;-33.992;18.480;2023-07-16T03:02:58;14.20;99.90
37380;DHT22;23252;-33.992;18.480;2023-07-16T03:05:28;14.20;99.90
37380;DHT22;23252;-33.992;18.480;2023-07-16T03:07:54;14.20;99.90
37380;DHT22;23252;-33.992;18.480;2023-07-16T03:10:22;14.20;99.90
37380;DHT22;23252;-33.992;18.480;2023-07-16T03:12:48;14.20;99.90
37380;DHT22;23252;-33.992;18.480;2023-07-16T03:15:15;14.10;99.90
37380;DHT22;23252;-33.992;18.480;2023-07-16T03:17:42;14.20;99.90
37380;DHT22;23252;-33.992;18.480;2023-07-16T03:20:08;14.20;99.90
37380;DHT22;23252;-33.992;18.480;2023-07-16T03:22:36;14.20;99.90
37380;DHT22;23252;-33.992;18.480;2023-07-16T03:25:02;14.20;99.90
37380;DHT22;23252;-33.992;18.480;2023-07-16T03:27:29;14.20;99.90
37380;DHT22;23252;-33.992;18.480;2023-07-16T03:29:56;14.10;99.90
37380;DHT22;23252;-33.992;18.480;2023-07-16T03:32:23;14.10;99.90
37380;DHT22;23252;-33.992;18.480;2023-07-16T03:34:49;14.10;99.90
37380;DHT22;23252;-33.992;18.480;2023-07-16T03:37:16;14.20;99.90
37380;DHT22;23252;-33.992;18.480;2023-07-16T03:39:42;14.20;99.90
37380;DHT22;23252;-33.992;18.480;2023-07-16T03:42:09;14.20;99.90
37380;DHT22;23252;-33.992;18.480;2023-07-16T03:44:35;14.20;99.90
37380;DHT22;23252;-33.992;18.480;2023-07-16T03:47:02;14.20;99.90
37380;DHT22;23252;-33.992;18.480;2023-07-16T03:49:29;14.10;99.90
37380;DHT22;23252;-33.992;18.480;2023-07-16T03:51:55;14.20;99.90
37380;DHT22;23252;-33.992;18.480;2023-07-16T03:54:22;14.20;99.90
37380;DHT22;23252;-33.992;18.480;2023-07-16T03:56:48;14.10;99.90
37380;DHT22;23252;-33.992;18.480;2023-07-16T03:59:15;14.10;99.90
37380;DHT22;23252;-33.992;18.480;2023-07-16T04:01:42;14.10;99.90
37380;DHT22;23252;-33.992;18.480;2023-07-16T04:04:10;14.20;99.90
37380;DHT22;23252;-33.992;18.480;2023-07-16T04:06:37;14.10;99.90
37380;DHT22;23252;-33.992;18.480;2023-07-16T04:09:03;14.10;99.90
37380;DHT22;23252;-33.992;18.480;2023-07-16T04:11:30;14.10;99.90
37380;DHT22;23252;-33.992;18.480;2023-07-16T04:13:57;14.00;99.90
37380;DHT22;23252;-33.992;18.480;2023-07-16T04:16:23;14.10;99.90
37380;DHT22;23252;-33.992;18.480;2023-07-16T04:18:50;14.10;99.90
37380;DHT22;23252;-33.992;18.480;2023-07-16T04:21:16;14.10;99.90
37380;DHT22;23252;-33.992;18.480;2023-07-16T04:23:43;14.10;99.90
37380;DHT22;23252;-33.992;18.480;2023-07-16T04:26:09;14.10;99.90
37380;DHT22;23252;-33.992;18.480;2023-07-16T04:28:35;14.10;99.90
37380;DHT22;23252;-33.992;18.480;2023-07-16T04:31:02;14.00;99.90
37380;DHT22;23252;-33.992;18.480;2023-07-16T04:33:28;14.00;99.90
37380;DHT22;23252;-33.992;18.480;2023-07-16T04:35:55;14.00;99.90
37380;DHT22;23252;-33.992;18.480;2023-07-16T04:38:21;14.00;99.90
37380;DHT22;23252;-33.992;18.480;2023-07-16T04:40:48;13.90;99.90
37380;DHT22;23252;-33.992;18.480;2023-07-16T04:43:14;14.00;99.90
37380;DHT22;23252;-33.992;18.480;2023-07-16T04:45:42;14.00;99.90
37380;DHT22;23252;-33.992;18.480;2023-07-16T04:48:10;13.90;99.90
37380;DHT22;23252;-33.992;18.480;2023-07-16T04:50:36;13.90;99.90
37380;DHT22;23252;-33.992;18.480;2023-07-16T04:53:03;13.90;99.90
37380;DHT22;23252;-33.992;18.480;2023-07-16T04:55:34;13.90;99.90
37380;DHT22;23252;-33.992;18.480;2023-07-16T04:58:00;13.90;99.90
37380;DHT22;23252;-33.992;18.480;2023-07-16T05:00:27;13.90;99.90
37380;DHT22;23252;-33.992;18.480;2023-07-16T05:02:53;13.90;99.90
37380;DHT22;23252;-33.992;18.480;2023-07-16T05:05:20;13.90;99.90
37380;DHT22;23252;-33.992;18.480;2023-07-16T05:07:46;13.90;99.90
37380;DHT22;23252;-33.992;18.480;2023-07-16T05:10:13;14.00;99.90
37380;DHT22;23252;-33.992;18.480;2023-07-16T05:12:39;13.90;99.90
37380;DHT22;23252;-33.992;18.480;2023-07-16T05:15:06;13.90;99.90
37380;DHT22;23252;-33.992;18.480;2023-07-16T05:17:33;13.90;99.90
37380;DHT22;23252;-33.992;18.480;2023-07-16T05:19:59;13.90;99.90
37380;DHT22;23252;-33.992;18.480;2023-07-16T05:22:26;13.90;99.90
37380;DHT22;23252;-33.992;18.480;2023-07-16T05:24:52;13.90;99.90
37380;DHT22;23252;-33.992;18.480;2023-07-16T05:27:19;13.90;99.90
37380;DHT22;23252;-33.992;18.480;2023-07-16T05:29:45;14.00;99.90
37380;DHT22;23252;-33.992;18.480;2023-07-16T05:32:12;13.90;99.90
37380;DHT22;23252;-33.992;18.480;2023-07-16T05:34:38;13.90;99.90
37380;DHT22;23252;-33.992;18.480;2023-07-16T05:37:05;13.90;99.90
37380;DHT22;23252;-33.992;18.480;2023-07-16T05:39:32;13.90;99.90
37380;DHT22;23252;-33.992;18.480;2023-07-16T05:41:58;13.90;99.90
37380;DHT22;23252;-33.992;18.480;2023-07-16T05:44:27;13.80;99.90
37380;DHT22;23252;-33.992;18.480;2023-07-16T05:46:53;13.80;99.90
37380;DHT22;23252;-33.992;18.480;2023-07-16T05:49:20;13.80;99.90
37380;DHT22;23252;-33.992;18.480;2023-07-16T05:51:46;13.80;99.90
37380;DHT22;23252;-33.992;18.480;2023-07-16T05:54:13;13.80;99.90
37380;DHT22;23252;-33.992;18.480;2023-07-16T05:56:39;13.80;99.90
37380;DHT22;23252;-33.992;18.480;2023-07-16T05:59:06;13.80;99.90
37380;DHT22;23252;-33.992;18.480;2023-07-16T06:01:32;13.80;99.90
37380;DHT22;23252;-33.992;18.480;2023-07-16T06:03:59;13.90;99.90
37380;DHT22;23252;-33.992;18.480;2023-07-16T06:06:27;13.90;99.90
37380;DHT22;23252;-33.992;18.480;2023-07-16T06:08:54;13.80;99.90
37380;DHT22;23252;-33.992;18.480;2023-07-16T06:11:21;13.80;99.90
37380;DHT22;23252;-33.992;18.480;2023-07-16T06:13:47;13.80;99.90
37380;DHT22;23252;-33.992;18.480;2023-07-16T06:16:14;13.80;99.90
37380;DHT22;23252;-33.992;18.480;2023-07-16T06:18:41;13.80;99.90
37380;DHT22;23252;-33.992;18.480;2023-07-16T06:21:07;13.80;99.90
37380;DHT22;23252;-33.992;18.480;2023-07-16T06:23:33;13.80;99.90
37380;DHT22;23252;-33.992;18.480;2023-07-16T06:26:00;13.90;99.90
37380;DHT22;23252;-33.992;18.480;2023-07-16T06:28:27;13.90;99.90
37380;DHT22;23252;-33.992;18.480;2023-07-16T06:30:54;13.90;99.90
37380;DHT22;23252;-33.992;18.480;2023-07-16T06:33:20;13.90;99.90
37380;DHT22;23252;-33.992;18.480;2023-07-16T06:35:47;13.90;99.90
37380;DHT22;23252;-33.992;18.480;2023-07-16T06:38:14;13.90;99.90
37380;DHT22;23252;-33.992;18.480;2023-07-16T06:40:48;13.90;99.90
37380;DHT22;23252;-33.992;18.480;2023-07-16T06:43:16;13.90;99.90
37380;DHT22;23252;-33.992;18.480;2023-07-16T06:45:42;13.90;99.90
37380;DHT22;23252;-33.992;18.480;2023-07-16T06:48:09;13.90;99.90
37380;DHT22;23252;-33.992;18.480;2023-07-16T06:50:36;14.00;99.90
37380;DHT22;23252;-33.992;18.480;2023-07-16T06:53:02;13.90;99.90
37380;DHT22;23252;-33.992;18.480;2023-07-16T06:55:29;14.00;99.90
37380;DHT22;23252;-33.992;18.480;2023-07-16T06:57:55;14.00;99.90
37380;DHT22;23252;-33.992;18.480;2023-07-16T07:00:25;14.00;99.90
37380;DHT22;23252;-33.992;18.480;2023-07-16T07:02:55;14.00;99.90
37380;DHT22;23252;-33.992;18.480;2023-07-16T07:05:22;14.00;99.90
37380;DHT22;23252;-33.992;18.480;2023-07-16T07:07:51;14.00;99.90
37380;DHT22;23252;-33.992;18.480;2023-07-16T07:10:18;14.00;99.90
37380;DHT22;23252;-33.992;18.480;2023-07-16T07:12:44;14.00;99.90
37380;DHT22;23252;-33.992;18.480;2023-07-16T07:15:11;14.00;99.90
37380;DHT22;23252;-33.992;18.480;2023-07-16T07:17:37;14.00;99.90
37380;DHT22;23252;-33.992;18.480;2023-07-16T07:20:04;14.00;99.90
37380;DHT22;23252;-33.992;18.480;2023-07-16T07:22:31;14.00;99.90
37380;DHT22;23252;-33.992;18.480;2023-07-16T07:24:58;14.00;99.90
37380;DHT22;23252;-33.992;18.480;2023-07-16T07:27:25;14.00;99.90
37380;DHT22;23252;-33.992;18.480;2023-07-16T07:29:51;14.00;99.90
37380;DHT22;23252;-33.992;18.480;2023-07-16T07:32:20;14.00;99.90
37380;DHT22;23252;-33.992;18.480;2023-07-16T07:34:46;14.00;99.90
37380;DHT22;23252;-33.992;18.480;2023-07-16T07:37:13;14.00;99.90
37380;DHT22;23252;-33.992;18.480;2023-07-16T07:39:40;14.00;99.90
37380;DHT22;23252;-33.992;18.480;2023-07-16T07:42:06;14.00;99.90
37380;DHT22;23252;-33.992;18.480;2023-07-16T07:44:33;14.10;99.90
37380;DHT22;23252;-33.992;18.480;2023-07-16T07:47:03;14.10;99.90
37380;DHT22;23252;-33.992;18.480;2023-07-16T07:49:30;14.10;99.90
37380;DHT22;23252;-33.992;18.480;2023-07-16T07:51:56;14.10;99.90
37380;DHT22;23252;-33.992;18.480;2023-07-16T07:54:23;14.10;99.90
37380;DHT22;23252;-33.992;18.480;2023-07-16T07:56:49;14.10;99.90
37380;DHT22;23252;-33.992;18.480;2023-07-16T07:59:16;14.10;99.90
37380;DHT22;23252;-33.992;18.480;2023-07-16T08:01:43;14.10;99.90
37380;DHT22;23252;-33.992;18.480;2023-07-16T08:04:11;14.10;99.90
37380;DHT22;23252;-33.992;18.480;2023-07-16T08:06:38;14.10;99.90
37380;DHT22;23252;-33.992;18.480;2023-07-16T08:09:05;14.10;99.90
37380;DHT22;23252;-33.992;18.480;2023-07-16T08:11:31;14.10;99.90
37380;DHT22;23252;-33.992;18.480;2023-07-16T08:13:58;14.10;99.90
37380;DHT22;23252;-33.992;18.480;2023-07-16T08:16:24;14.10;99.90
37380;DHT22;23252;-33.992;18.480;2023-07-16T08:18:51;14.10;99.90
37380;DHT22;23252;-33.992;18.480;2023-07-16T08:21:17;14.20;99.90
37380;DHT22;23252;-33.992;18.480;2023-07-16T08:23:49;14.20;99.90
37380;DHT22;23252;-33.992;18.480;2023-07-16T08:26:16;14.20;99.90
37380;DHT22;23252;-33.992;18.480;2023-07-16T08:28:43;14.30;99.90
37380;DHT22;23252;-33.992;18.480;2023-07-16T08:31:11;14.30;99.90
37380;DHT22;23252;-33.992;18.480;2023-07-16T08:33:39;14.30;99.90
37380;DHT22;23252;-33.992;18.480;2023-07-16T08:36:05;14.40;99.90
37380;DHT22;23252;-33.992;18.480;2023-07-16T08:38:32;14.40;99.90
37380;DHT22;23252;-33.992;18.480;2023-07-16T08:41:00;14.40;99.90
37380;DHT22;23252;-33.992;18.480;2023-07-16T08:43:28;14.40;99.90
37380;DHT22;23252;-33.992;18.480;2023-07-16T08:45:55;14.40;99.90
37380;DHT22;23252;-33.992;18.480;2023-07-16T08:48:22;14.40;99.90
37380;DHT22;23252;-33.992;18.480;2023-07-16T08:50:49;14.40;99.90
37380;DHT22;23252;-33.992;18.480;2023-07-16T08:53:16;14.40;99.90
37380;DHT22;23252;-33.992;18.480;2023-07-16T08:55:45;14.40;99.90
37380;DHT22;23252;-33.992;18.480;2023-07-16T08:58:14;14.40;99.90
37380;DHT22;23252;-33.992;18.480;2023-07-16T09:00:45;14.50;99.90
37380;DHT22;23252;-33.992;18.480;2023-07-16T09:03:12;14.50;99.90
37380;DHT22;23252;-33.992;18.480;2023-07-16T09:05:45;14.60;99.90
37380;DHT22;23252;-33.992;18.480;2023-07-16T09:08:12;14.50;99.90
37380;DHT22;23252;-33.992;18.480;2023-07-16T09:10:41;14.60;99.90
37380;DHT22;23252;-33.992;18.480;2023-07-16T09:13:08;14.50;99.90
37380;DHT22;23252;-33.992;18.480;2023-07-16T09:15:35;14.50;99.90
37380;DHT22;23252;-33.992;18.480;2023-07-16T09:18:04;14.50;99.90
37380;DHT22;23252;-33.992;18.480;2023-07-16T09:20:30;14.60;99.90
37380;DHT22;23252;-33.992;18.480;2023-07-16T09:23:00;14.60;99.90
37380;DHT22;23252;-33.992;18.480;2023-07-16T09:25:30;14.60;99.90
37380;DHT22;23252;-33.992;18.480;2023-07-16T09:28:03;14.60;99.90
37380;DHT22;23252;-33.992;18.480;2023-07-16T09:30:34;14.70;99.90
37380;DHT22;23252;-33.992;18.480;2023-07-16T09:33:12;14.60;99.90
37380;DHT22;23252;-33.992;18.480;2023-07-16T09:35:39;14.70;99.90
37380;DHT22;23252;-33.992;18.480;2023-07-16T09:38:08;14.70;99.90
37380;DHT22;23252;-33.992;18.480;2023-07-16T09:40:39;14.70;99.90
37380;DHT22;23252;-33.992;18.480;2023-07-16T09:43:09;14.70;99.90
37380;DHT22;23252;-33.992;18.480;2023-07-16T09:45:35;14.70;99.90
37380;DHT22;23252;-33.992;18.480;2023-07-16T09:48:06;14.70;99.90
37380;DHT22;23252;-33.992;18.480;2023-07-16T09:50:34;14.80;99.90
37380;DHT22;23252;-33.992;18.480;2023-07-16T09:53:04;14.80;99.90
37380;DHT22;23252;-33.992;18.480;2023-07-16T09:55:35;14.80;99.90
37380;DHT22;23252;-33.992;18.480;2023-07-16T09:58:06;14.80;99.90
37380;DHT22;23252;-33.992;18.480;2023-07-16T10:00:36;14.80;99.90
37380;DHT22;23252;-33.992;18.480;2023-07-16T10:03:12;14.80;99.90
37380;DHT22;23252;-33.992;18.480;2023-07-16T10:05:39;14.80;99.90
37380;DHT22;23252;-33.992;18.480;2023-07-16T10:08:19;14.90;99.90
37380;DHT22;23252;-33.992;18.480;2023-07-16T10:10:54;14.90;99.90
37380;DHT22;23252;-33.992;18.480;2023-07-16T10:13:24;14.90;99.90
37380;DHT22;23252;-33.992;18.480;2023-07-16T10:16:02;15.00;99.90
37380;DHT22;23252;-33.992;18.480;2023-07-16T10:18:32;15.00;99.90
37380;DHT22;23252;-33.992;18.480;2023-07-16T10:21:07;15.00;99.90
37380;DHT22;23252;-33.992;18.480;2023-07-16T10:23:42;15.00;99.90
37380;DHT22;23252;-33.992;18.480;2023-07-16T10:26:12;15.00;99.90
37380;DHT22;23252;-33.992;18.480;2023-07-16T10:28:38;15.00;99.90
37380;DHT22;23252;-33.992;18.480;2023-07-16T10:31:26;15.00;99.90
37380;DHT22;23252;-33.992;18.480;2023-07-16T10:34:00;15.00;99.90
37380;DHT22;23252;-33.992;18.480;2023-07-16T10:36:27;15.00;99.90
37380;DHT22;23252;-33.992;18.480;2023-07-16T10:38:53;15.00;99.90
37380;DHT22;23252;-33.992;18.480;2023-07-16T10:41:21;15.00;99.90
37380;DHT22;23252;-33.992;18.480;2023-07-16T10:43:47;15.00;99.90
37380;DHT22;23252;-33.992;18.480;2023-07-16T10:46:14;15.00;99.90
37380;DHT22;23252;-33.992;18.480;2023-07-16T10:48:49;14.90;99.90
37380;DHT22;23252;-33.992;18.480;2023-07-16T10:51:15;15.00;99.90
37380;DHT22;23252;-33.992;18.480;2023-07-16T10:53:43;14.90;99.90
37380;DHT22;23252;-33.992;18.480;2023-07-16T10:56:10;15.00;99.90
37380;DHT22;23252;-33.992;18.480;2023-07-16T10:58:37;15.00;99.90
37380;DHT22;23252;-33.992;18.480;2023-07-16T11:01:04;14.90;99.90
37380;DHT22;23252;-33.992;18.480;2023-07-16T11:03:30;14.90;99.90
37380;DHT22;23252;-33.992;18.480;2023-07-16T11:05:57;15.00;99.90
37380;DHT22;23252;-33.992;18.480;2023-07-16T11:08:24;15.00;99.90
37380;DHT22;23252;-33.992;18.480;2023-07-16T11:10:57;15.00;99.90
37380;DHT22;23252;-33.992;18.480;2023-07-16T11:13:38;15.10;99.90
37380;DHT22;23252;-33.992;18.480;2023-07-16T11:16:09;15.10;99.90
37380;DHT22;23252;-33.992;18.480;2023-07-16T11:18:36;15.10;99.90
37380;DHT22;23252;-33.992;18.480;2023-07-16T11:21:03;15.20;99.90
37380;DHT22;23252;-33.992;18.480;2023-07-16T11:23:36;15.20;99.90
37380;DHT22;23252;-33.992;18.480;2023-07-16T11:26:08;15.30;99.90
37380;DHT22;23252;-33.992;18.480;2023-07-16T11:28:41;15.10;99.90
37380;DHT22;23252;-33.992;18.480;2023-07-16T11:31:16;15.10;99.90
37380;DHT22;23252;-33.992;18.480;2023-07-16T11:33:44;15.10;99.90
37380;DHT22;23252;-33.992;18.480;2023-07-16T11:36:11;15.10;99.90
37380;DHT22;23252;-33.992;18.480;2023-07-16T11:38:44;15.20;99.90
37380;DHT22;23252;-33.992;18.480;2023-07-16T11:41:10;15.20;99.90
37380;DHT22;23252;-33.992;18.480;2023-07-16T11:43:37;15.50;99.90
37380;DHT22;23252;-33.992;18.480;2023-07-16T11:49:00;15.80;99.90
37380;DHT22;23252;-33.992;18.480;2023-07-16T11:51:27;16.00;99.90
37380;DHT22;23252;-33.992;18.480;2023-07-16T11:53:56;16.00;99.90
37380;DHT22;23252;-33.992;18.480;2023-07-16T11:56:23;16.00;99.90
37380;DHT22;23252;-33.992;18.480;2023-07-16T11:58:50;16.10;99.90
37380;DHT22;23252;-33.992;18.480;2023-07-16T12:01:17;16.20;99.90
37380;DHT22;23252;-33.992;18.480;2023-07-16T12:03:46;16.20;99.90
37380;DHT22;23252;-33.992;18.480;2023-07-16T12:06:19;16.40;99.90
37380;DHT22;23252;-33.992;18.480;2023-07-16T12:08:45;16.60;99.90
37380;DHT22;23252;-33.992;18.480;2023-07-16T12:11:12;16.70;99.90
37380;DHT22;23252;-33.992;18.480;2023-07-16T12:13:38;16.80;99.90
37380;DHT22;23252;-33.992;18.480;2023-07-16T12:16:05;16.90;99.90
37380;DHT22;23252;-33.992;18.480;2023-07-16T12:18:32;16.90;99.90
37380;DHT22;23252;-33.992;18.480;2023-07-16T12:20:58;16.90;99.90
37380;DHT22;23252;-33.992;18.480;2023-07-16T12:23:25;17.00;99.90
37380;DHT22;23252;-33.992;18.480;2023-07-16T12:25:57;16.90;99.90
37380;DHT22;23252;-33.992;18.480;2023-07-16T12:28:23;17.00;99.90
37380;DHT22;23252;-33.992;18.480;2023-07-16T12:30:50;17.00;99.90
37380;DHT22;23252;-33.992;18.480;2023-07-16T12:33:25;16.90;99.90
37380;DHT22;23252;-33.992;18.480;2023-07-16T12:35:57;16.70;99.90
37380;DHT22;23252;-33.992;18.480;2023-07-16T12:38:24;16.60;99.90
37380;DHT22;23252;-33.992;18.480;2023-07-16T12:40:50;16.50;99.90
37380;DHT22;23252;-33.992;18.480;2023-07-16T12:43:20;16.50;99.90
37380;DHT22;23252;-33.992;18.480;2023-07-16T12:45:46;16.40;99.90
37380;DHT22;23252;-33.992;18.480;2023-07-16T12:48:22;16.30;99.90
37380;DHT22;23252;-33.992;18.480;2023-07-16T12:50:49;16.30;99.90
37380;DHT22;23252;-33.992;18.480;2023-07-16T12:53:17;16.30;99.90
37380;DHT22;23252;-33.992;18.480;2023-07-16T12:55:47;16.30;99.90
37380;DHT22;23252;-33.992;18.480;2023-07-16T12:58:14;16.30;99.90
37380;DHT22;23252;-33.992;18.480;2023-07-16T13:00:43;16.30;99.90
37380;DHT22;23252;-33.992;18.480;2023-07-16T13:03:27;16.30;99.90
37380;DHT22;23252;-33.992;18.480;2023-07-16T13:06:00;16.40;99.90
37380;DHT22;23252;-33.992;18.480;2023-07-16T13:08:51;16.30;99.90
37380;DHT22;23252;-33.992;18.480;2023-07-16T13:11:30;16.40;99.90
37380;DHT22;23252;-33.992;18.480;2023-07-16T13:14:20;16.30;99.90
37380;DHT22;23252;-33.992;18.480;2023-07-16T13:16:46;16.40;99.90
37380;DHT22;23252;-33.992;18.480;2023-07-16T13:19:13;16.30;99.90
37380;DHT22;23252;-33.992;18.480;2023-07-16T13:21:48;16.40;99.90
37380;DHT22;23252;-33.992;18.480;2023-07-16T13:24:20;16.30;99.90
37380;DHT22;23252;-33.992;18.480;2023-07-16T13:26:47;16.30;99.90
37380;DHT22;23252;-33.992;18.480;2023-07-16T13:29:13;16.40;99.90
37380;DHT22;23252;-33.992;18.480;2023-07-16T13:31:46;16.30;99.90
37380;DHT22;23252;-33.992;18.480;2023-07-16T13:34:12;16.30;99.90
37380;DHT22;23252;-33.992;18.480;2023-07-16T13:36:39;16.30;99.90
37380;DHT22;23252;-33.992;18.480;2023-07-16T13:39:06;16.20;99.90
37380;DHT22;23252;-33.992;18.480;2023-07-16T13:41:39;16.20;99.90
37380;DHT22;23252;-33.992;18.480;2023-07-16T13:44:06;16.10;99.90
37380;DHT22;23252;-33.992;18.480;2023-07-16T13:46:32;16.10;99.90
37380;DHT22;23252;-33.992;18.480;2023-07-16T13:48:59;16.10;99.90
37380;DHT22;23252;-33.992;18.480;2023-07-16T13:51:26;16.10;99.90
37380;DHT22;23252;-33.992;18.480;2023-07-16T13:53:53;16.10;99.90
37380;DHT22;23252;-33.992;18.480;2023-07-16T13:56:28;16.10;99.90
37380;DHT22;23252;-33.992;18.480;2023-07-16T13:59:00;16.10;99.90
37380;DHT22;23252;-33.992;18.480;2023-07-16T14:01:27;16.10;99.90
37380;DHT22;23252;-33.992;18.480;2023-07-16T14:03:53;16.10;99.90
37380;DHT22;23252;-33.992;18.480;2023-07-16T14:06:20;16.20;99.90
37380;DHT22;23252;-33.992;18.480;2023-07-16T14:08:46;16.10;99.90
37380;DHT22;23252;-33.992;18.480;2023-07-16T14:11:13;16.10;99.90
37380;DHT22;23252;-33.992;18.480;2023-07-16T14:13:42;16.10;99.90
37380;DHT22;23252;-33.992;18.480;2023-07-16T14:16:09;16.10;99.90
37380;DHT22;23252;-33.992;18.480;2023-07-16T14:18:35;15.90;99.90
37380;DHT22;23252;-33.992;18.480;2023-07-16T14:21:05;15.90;99.90
37380;DHT22;23252;-33.992;18.480;2023-07-16T14:23:31;15.90;99.90
37380;DHT22;23252;-33.992;18.480;2023-07-16T14:25:58;15.90;99.90
37380;DHT22;23252;-33.992;18.480;2023-07-16T14:28:28;15.80;99.90
37380;DHT22;23252;-33.992;18.480;2023-07-16T14:30:55;15.90;99.90
37380;DHT22;23252;-33.992;18.480;2023-07-16T14:33:22;15.90;99.90
37380;DHT22;23252;-33.992;18.480;2023-07-16T14:35:48;15.90;99.90
37380;DHT22;23252;-33.992;18.480;2023-07-16T14:38:21;15.80;99.90
37380;DHT22;23252;-33.992;18.480;2023-07-16T14:40:47;15.80;99.90
37380;DHT22;23252;-33.992;18.480;2023-07-16T14:43:15;15.80;99.90
37380;DHT22;23252;-33.992;18.480;2023-07-16T14:45:41;15.80;99.90
37380;DHT22;23252;-33.992;18.480;2023-07-16T14:48:08;15.80;99.90
37380;DHT22;23252;-33.992;18.480;2023-07-16T14:50:35;15.80;99.90
37380;DHT22;23252;-33.992;18.480;2023-07-16T14:53:02;15.80;99.90
37380;DHT22;23252;-33.992;18.480;2023-07-16T14:55:29;15.80;99.90
37380;DHT22;23252;-33.992;18.480;2023-07-16T14:57:59;15.80;99.90
37380;DHT22;23252;-33.992;18.480;2023-07-16T15:00:55;15.70;99.90
37380;DHT22;23252;-33.992;18.480;2023-07-16T15:03:27;15.70;99.90
37380;DHT22;23252;-33.992;18.480;2023-07-16T15:05:58;15.70;99.90
37380;DHT22;23252;-33.992;18.480;2023-07-16T15:08:25;15.70;99.90
37380;DHT22;23252;-33.992;18.480;2023-07-16T15:10:56;15.70;99.90
37380;DHT22;23252;-33.992;18.480;2023-07-16T15:13:23;15.60;99.90
37380;DHT22;23252;-33.992;18.480;2023-07-16T15:15:58;15.70;99.90
37380;DHT22;23252;-33.992;18.480;2023-07-16T15:18:25;15.60;99.90
37380;DHT22;23252;-33.992;18.480;2023-07-16T15:21:00;15.60;99.90